createdAt,value
2023-02-11T00:02:20.757Z,100485.63
2023-02-11T00:05:25.156Z,100489.84
2023-02-11T00:08:26.983Z,100487.81
2023-02-11T00:11:33.748Z,100482.47
2023-02-11T00:14:35.407Z,100494.97
2023-02-11T00:17:42.288Z,100496.63
2023-02-11T00:20:46.605Z,100497.25
2023-02-11T00:23:48.280Z,100491.00
2023-02-11T00:26:49.979Z,100491.13
2023-02-11T00:29:51.782Z,100492.25
2023-02-11T00:32:53.441Z,100504.28
2023-02-11T00:35:55.533Z,100506.81
2023-02-11T00:38:59.971Z,100499.78
2023-02-11T00:42:04.229Z,100505.69
2023-02-11T00:45:06.252Z,100500.19
2023-02-11T00:48:11.133Z,100496.09
2023-02-11T00:51:13.017Z,100494.72
2023-02-11T00:54:14.617Z,100492.13
2023-02-11T00:57:16.320Z,100484.00
2023-02-11T01:00:18.200Z,100480.03
2023-02-11T01:03:19.829Z,100467.38
2023-02-11T01:06:21.497Z,100475.41
2023-02-11T01:09:25.455Z,100484.09
2023-02-11T01:12:27.126Z,100487.19
2023-02-11T01:15:28.962Z,100480.56
2023-02-11T01:18:30.582Z,100480.91
2023-02-11T01:21:32.288Z,100473.13
2023-02-11T01:24:33.911Z,100477.84
2023-02-11T01:27:35.720Z,100467.16
2023-02-11T01:30:38.790Z,100459.63
2023-02-11T01:33:43.262Z,100450.19
2023-02-11T01:36:48.205Z,100452.22
2023-02-11T01:39:49.915Z,100451.97
2023-02-11T01:42:51.650Z,100461.28
2023-02-11T01:46:02.296Z,100454.00
2023-02-11T01:49:16.764Z,100442.78
2023-02-11T01:52:24.214Z,100448.25
2023-02-11T01:55:44.363Z,100444.28
2023-02-11T01:58:46.182Z,100434.09
2023-02-11T02:01:50.701Z,100431.53
2023-02-11T02:05:17.972Z,100428.88
2023-02-11T02:08:23.138Z,100420.19
2023-02-11T02:11:25.095Z,100420.31
2023-02-11T02:14:26.808Z,100412.94
2023-02-11T02:17:38.067Z,100415.50
2023-02-11T02:21:13.190Z,100408.84
2023-02-11T02:24:33.220Z,100407.06
2023-02-11T02:27:40.258Z,100394.31
2023-02-11T02:30:51.358Z,100390.22
2023-02-11T02:34:00.544Z,100374.00
2023-02-11T02:37:35.398Z,100365.34
2023-02-11T02:40:57.152Z,100374.25
2023-02-11T02:43:58.901Z,100374.75
2023-02-11T02:47:00.668Z,100384.75
2023-02-11T02:50:02.830Z,100382.81
2023-02-11T02:53:48.354Z,100384.59
2023-02-11T02:57:04.812Z,100382.69
2023-02-11T03:00:14.433Z,100387.16
2023-02-11T03:03:20.531Z,100384.22
2023-02-11T03:06:34.556Z,100364.59
2023-02-11T03:09:54.975Z,100367.50
2023-02-11T03:12:56.775Z,100384.34
2023-02-11T03:15:58.570Z,100375.81
2023-02-11T03:19:05.901Z,100374.38
2023-02-11T03:22:11.425Z,100369.81
2023-02-11T03:25:13.099Z,100363.19
2023-02-11T03:28:32.575Z,100365.34
2023-02-11T03:31:56.322Z,100368.91
2023-02-11T03:35:11.486Z,100374.28
2023-02-11T03:38:34.990Z,100371.22
2023-02-11T03:41:36.717Z,100375.31
2023-02-11T03:44:41.443Z,100372.47
2023-02-11T03:47:46.309Z,100368.41
2023-02-11T03:50:48.313Z,100368.16
2023-02-11T03:53:50.053Z,100357.31
2023-02-11T03:56:53.443Z,100360.63
2023-02-11T04:00:04.452Z,100364.72
2023-02-11T04:03:06.814Z,100367.13
2023-02-11T04:06:08.518Z,100373.13
2023-02-11T04:09:10.598Z,100370.56
2023-02-11T04:12:12.319Z,100388.69
2023-02-11T04:15:13.994Z,100378.22
2023-02-11T04:18:15.647Z,100369.16
2023-02-11T04:21:17.302Z,100347.88
2023-02-11T04:24:18.944Z,100350.69
2023-02-11T04:27:20.685Z,100355.78
2023-02-11T04:30:22.390Z,100344.94
2023-02-11T04:33:24.129Z,100336.25
2023-02-11T04:36:25.863Z,100353.34
2023-02-11T04:39:27.527Z,100340.59
2023-02-11T04:42:29.223Z,100348.13
2023-02-11T04:45:30.945Z,100360.97
2023-02-11T04:48:32.610Z,100362.13
2023-02-11T04:51:34.213Z,100368.78
2023-02-11T04:54:35.871Z,100369.78
2023-02-11T04:57:37.538Z,100379.84
2023-02-11T05:00:39.205Z,100390.44
2023-02-11T05:03:41.100Z,100374.59
2023-02-11T05:06:42.855Z,100371.41
2023-02-11T05:09:44.524Z,100352.50
2023-02-11T05:12:48.521Z,100349.44
2023-02-11T05:15:50.537Z,100338.06
2023-02-11T05:18:53.756Z,100335.97
2023-02-11T05:22:02.589Z,100325.56
2023-02-11T05:25:05.462Z,100330.81
2023-02-11T05:28:07.353Z,100321.09
2023-02-11T05:31:09.192Z,100326.50
2023-02-11T05:34:10.976Z,100321.75
2023-02-11T05:37:12.756Z,100317.56
2023-02-11T05:40:14.504Z,100313.56
2023-02-11T05:43:16.232Z,100318.41
2023-02-11T05:46:18.049Z,100317.50
2023-02-11T05:49:19.778Z,100320.50
2023-02-11T05:52:23.726Z,100318.91
2023-02-11T05:55:25.365Z,100322.16
2023-02-11T05:58:27.098Z,100313.63
2023-02-11T06:01:29.372Z,100323.31
2023-02-11T06:04:31.088Z,100320.97
2023-02-11T06:07:32.754Z,100325.38
2023-02-11T06:10:34.452Z,100319.44
2023-02-11T06:13:36.406Z,100305.09
2023-02-11T06:16:38.193Z,100306.34
2023-02-11T06:19:39.812Z,100305.41
2023-02-11T06:22:41.551Z,100298.38
2023-02-11T06:25:43.206Z,100289.94
2023-02-11T06:28:45.068Z,100278.97
2023-02-11T06:31:49.508Z,100282.78
2023-02-11T06:34:51.329Z,100298.84
2023-02-11T06:37:54.080Z,100298.16
2023-02-11T06:40:57.935Z,100298.19
2023-02-11T06:43:59.680Z,100320.00
2023-02-11T06:47:01.354Z,100313.28
2023-02-11T06:50:05.603Z,100332.13
2023-02-11T06:53:07.298Z,100354.84
2023-02-11T06:56:10.850Z,100350.38
2023-02-11T06:59:16.725Z,100346.59
2023-02-11T07:02:20.766Z,100348.59
2023-02-11T07:05:22.729Z,100363.06
2023-02-11T07:08:24.327Z,100356.97
2023-02-11T07:11:33.498Z,100346.44
2023-02-11T07:14:35.155Z,100341.03
2023-02-11T07:17:36.827Z,100344.16
2023-02-11T07:20:39.046Z,100329.38
2023-02-11T07:23:41.427Z,100327.59
2023-02-11T07:26:43.162Z,100328.63
2023-02-11T07:29:47.008Z,100332.06
2023-02-11T07:32:49.047Z,100338.66
2023-02-11T07:35:50.939Z,100338.66
2023-02-11T07:38:52.895Z,100329.66
2023-02-11T07:41:54.678Z,100336.78
2023-02-11T07:44:58.188Z,100329.00
2023-02-11T07:47:59.857Z,100334.13
2023-02-11T07:51:28.475Z,100337.47
2023-02-11T07:54:34.693Z,100342.91
2023-02-11T07:57:39.348Z,100339.94
2023-02-11T08:00:41.279Z,100339.16
2023-02-11T08:03:43.258Z,100342.69
2023-02-11T08:06:44.920Z,100342.22
2023-02-11T08:09:46.620Z,100347.09
2023-02-11T08:12:48.365Z,100350.41
2023-02-11T08:15:59.654Z,100365.22
2023-02-11T08:19:03.297Z,100378.19
2023-02-11T08:22:07.305Z,100380.53
2023-02-11T08:25:08.973Z,100380.75
2023-02-11T08:28:10.605Z,100371.31
2023-02-11T08:31:16.161Z,100369.19
2023-02-11T08:34:22.090Z,100370.47
2023-02-11T08:37:23.846Z,100376.72
2023-02-11T08:40:25.595Z,100386.09
2023-02-11T08:43:27.254Z,100391.44
2023-02-11T08:46:29.043Z,100393.63
2023-02-11T08:49:32.327Z,100396.25
2023-02-11T08:52:34.051Z,100400.47
2023-02-11T08:55:36.003Z,100416.53
2023-02-11T08:58:38.053Z,100459.41
2023-02-11T09:01:39.797Z,100501.94
2023-02-11T09:04:43.944Z,100519.31
2023-02-11T09:07:45.761Z,100507.72
2023-02-11T09:10:50.210Z,100503.09
2023-02-11T09:13:54.438Z,100509.03
2023-02-11T09:17:09.909Z,100511.56
2023-02-11T09:20:17.783Z,100521.63
2023-02-11T09:23:25.026Z,100519.44
2023-02-11T09:26:33.721Z,100521.50
2023-02-11T09:29:45.634Z,100518.19
2023-02-11T09:32:49.784Z,100510.75
2023-02-11T09:36:01.185Z,100511.53
2023-02-11T09:39:08.226Z,100510.81
2023-02-11T09:42:16.036Z,100498.72
2023-02-11T09:46:01.539Z,100499.00
2023-02-11T09:50:06.230Z,100495.34
2023-02-11T10:13:57.877Z,100501.50
2023-02-11T12:19:35.476Z,100401.06
